createdAt,value
2023-10-18T00:01:43.260Z,100.00
2023-10-18T00:04:13.004Z,100.00
2023-10-18T00:06:42.427Z,100.00
2023-10-18T00:09:29.915Z,100.00
2023-10-18T00:12:00.912Z,100.00
2023-10-18T00:14:30.248Z,100.00
2023-10-18T00:17:00.623Z,100.00
2023-10-18T00:19:30.358Z,100.00
2023-10-18T00:22:00.025Z,100.00
2023-10-18T00:24:30.425Z,100.00
2023-10-18T00:27:00.104Z,100.00
2023-10-18T00:29:29.574Z,100.00
2023-10-18T00:32:00.435Z,100.00
2023-10-18T00:34:30.155Z,100.00
2023-10-18T00:37:01.500Z,100.00
2023-10-18T00:39:32.494Z,100.00
2023-10-18T00:42:19.785Z,100.00
2023-10-18T00:44:51.440Z,100.00
2023-10-18T00:47:21.277Z,100.00
2023-10-18T00:49:54.080Z,100.00
2023-10-18T00:52:25.332Z,100.00
2023-10-18T00:54:55.502Z,100.00
2023-10-18T00:57:43.030Z,100.00
2023-10-18T01:00:03.536Z,100.00
2023-10-18T01:02:34.506Z,100.00
2023-10-18T01:05:07.519Z,100.00
2023-10-18T01:07:36.911Z,100.00
2023-10-18T01:10:08.802Z,100.00
2023-10-18T01:12:41.248Z,100.00
2023-10-18T01:15:12.944Z,100.00
2023-10-18T01:17:46.044Z,100.00
2023-10-18T01:20:32.731Z,100.00
2023-10-18T01:23:02.850Z,100.00
2023-10-18T01:25:32.511Z,100.00
2023-10-18T01:28:02.098Z,100.00
2023-10-18T01:30:31.522Z,100.00
2023-10-18T01:33:06.545Z,100.00
2023-10-18T01:35:36.880Z,100.00
2023-10-18T01:38:07.851Z,100.00
2023-10-18T01:40:46.024Z,100.00
2023-10-18T01:43:16.999Z,100.00
2023-10-18T01:45:48.055Z,100.00
2023-10-18T01:48:21.150Z,100.00
2023-10-18T01:50:52.052Z,100.00
2023-10-18T01:53:21.391Z,100.00
2023-10-18T01:55:54.657Z,100.00
2023-10-18T01:58:25.886Z,100.00
2023-10-18T02:00:58.308Z,100.00
2023-10-18T02:03:30.060Z,100.00
2023-10-18T02:05:59.582Z,100.00
2023-10-18T02:08:28.992Z,100.00
2023-10-18T02:10:58.263Z,100.00
2023-10-18T02:13:27.554Z,100.00
2023-10-18T02:15:58.779Z,100.00
2023-10-18T02:18:28.751Z,100.00
2023-10-18T02:20:58.186Z,100.00
2023-10-18T02:23:29.134Z,100.00
2023-10-18T02:25:58.468Z,100.00
2023-10-18T02:28:28.855Z,100.00
2023-10-18T02:31:01.302Z,100.00
2023-10-18T02:33:47.128Z,100.00
2023-10-18T02:36:22.627Z,100.00
2023-10-18T02:38:51.979Z,100.00
2023-10-18T02:41:23.127Z,100.00
2023-10-18T02:43:56.030Z,100.00
2023-10-18T02:46:26.187Z,100.00
2023-10-18T02:48:57.296Z,100.00
2023-10-18T02:51:28.070Z,100.00
2023-10-18T02:54:18.000Z,100.00
2023-10-18T02:56:49.974Z,100.00
2023-10-18T02:59:26.908Z,100.00
2023-10-18T03:01:57.998Z,100.00
2023-10-18T03:04:29.166Z,100.00
2023-10-18T03:07:00.051Z,100.00
2023-10-18T03:09:31.159Z,100.00
2023-10-18T03:12:00.654Z,100.00
2023-10-18T03:14:42.792Z,100.00
2023-10-18T03:17:17.488Z,100.00
2023-10-18T03:19:48.724Z,100.00
2023-10-18T03:22:20.982Z,100.00
2023-10-18T03:24:53.044Z,100.00
2023-10-18T03:27:23.444Z,100.00
2023-10-18T03:30:00.048Z,100.00
2023-10-18T03:32:29.680Z,100.00
2023-10-18T03:35:00.433Z,100.00
2023-10-18T03:37:31.652Z,100.00
2023-10-18T03:40:02.628Z,100.00
2023-10-18T03:42:34.800Z,100.00
2023-10-18T03:45:14.903Z,100.00
2023-10-18T03:47:44.265Z,100.00
2023-10-18T03:50:16.782Z,100.00
2023-10-18T03:52:47.071Z,100.00
2023-10-18T03:55:21.070Z,100.00
2023-10-18T03:57:52.259Z,100.00
2023-10-18T04:00:26.476Z,100.00
2023-10-18T04:02:58.009Z,100.00
2023-10-18T04:05:33.575Z,100.00
2023-10-18T04:08:04.573Z,100.00
2023-10-18T04:10:35.549Z,100.00
2023-10-18T04:13:07.245Z,100.00
2023-10-18T04:15:38.330Z,100.00
2023-10-18T04:18:12.398Z,100.00
2023-10-18T04:20:47.907Z,100.00
2023-10-18T04:23:19.066Z,100.00
2023-10-18T04:26:05.957Z,100.00
2023-10-18T04:28:36.980Z,100.00
2023-10-18T04:31:08.413Z,100.00
2023-10-18T04:33:39.653Z,100.00
2023-10-18T04:36:13.673Z,100.00
2023-10-18T04:38:47.063Z,100.00
2023-10-18T04:41:32.833Z,100.00
2023-10-18T04:44:09.475Z,100.00
2023-10-18T04:46:39.239Z,100.00
2023-10-18T04:49:13.240Z,100.00
2023-10-18T04:51:44.219Z,100.00
2023-10-18T04:54:17.981Z,100.00
2023-10-18T04:56:50.300Z,100.00
2023-10-18T04:59:21.345Z,100.00
2023-10-18T05:01:53.132Z,100.00
2023-10-18T05:04:25.299Z,100.00
2023-10-18T05:06:57.895Z,100.00
2023-10-18T05:09:32.335Z,100.00
2023-10-18T05:12:10.060Z,100.00
2023-10-18T05:14:52.588Z,100.00
2023-10-18T05:17:33.188Z,100.00
2023-10-18T05:20:12.917Z,100.00
2023-10-18T05:22:43.014Z,100.00
2023-10-18T05:25:17.332Z,100.00
2023-10-18T05:28:04.752Z,100.00
2023-10-18T05:30:37.401Z,100.00
2023-10-18T05:33:08.367Z,100.00
2023-10-18T05:35:37.758Z,100.00
2023-10-18T05:38:14.614Z,100.00
2023-10-18T05:40:47.613Z,100.00
2023-10-18T05:43:27.336Z,100.00
2023-10-18T05:46:01.365Z,100.00
2023-10-18T05:48:32.512Z,100.00
2023-10-18T05:51:06.212Z,100.00
2023-10-18T05:53:35.814Z,100.00
2023-10-18T05:56:06.942Z,100.00
2023-10-18T05:58:36.339Z,100.00
2023-10-18T06:01:05.814Z,100.00
2023-10-18T06:03:41.084Z,100.00
2023-10-18T06:06:10.828Z,100.00
2023-10-18T06:08:40.115Z,100.00
2023-10-18T06:11:11.059Z,100.00
2023-10-18T06:13:41.942Z,100.00
2023-10-18T06:16:21.034Z,100.00
2023-10-18T06:18:51.294Z,100.00
2023-10-18T06:21:21.160Z,100.00
2023-10-18T06:23:56.887Z,100.00
2023-10-18T06:26:29.774Z,100.00
2023-10-18T06:29:03.760Z,100.00
2023-10-18T06:31:35.032Z,100.00
2023-10-18T06:34:06.027Z,100.00
2023-10-18T06:36:35.452Z,100.00
2023-10-18T06:39:06.232Z,100.00
2023-10-18T06:41:37.136Z,100.00
2023-10-18T06:44:08.280Z,100.00
2023-10-18T06:49:12.088Z,100.00
2023-10-18T06:51:44.858Z,100.00
2023-10-18T06:54:19.374Z,100.00
2023-10-18T06:56:49.187Z,100.00
2023-10-18T06:59:20.234Z,100.00
2023-10-18T07:01:56.990Z,100.00
2023-10-18T07:04:29.902Z,100.00
2023-10-18T07:06:59.246Z,100.00
2023-10-18T07:09:30.583Z,100.00
2023-10-18T07:12:01.786Z,100.00
2023-10-18T07:14:32.670Z,100.00
2023-10-18T07:17:05.861Z,100.00
2023-10-18T07:19:36.901Z,100.00
2023-10-18T07:22:10.961Z,100.00
2023-10-18T07:24:41.068Z,100.00
2023-10-18T07:27:10.807Z,100.00
2023-10-18T07:29:41.775Z,100.00
2023-10-18T07:32:12.801Z,100.00
2023-10-18T07:34:44.053Z,100.00
2023-10-18T07:37:26.673Z,100.00
2023-10-18T07:40:01.484Z,100.00
2023-10-18T07:42:32.668Z,100.00
2023-10-18T07:45:04.039Z,100.00
2023-10-18T07:47:35.691Z,100.00
2023-10-18T07:50:08.345Z,100.00
2023-10-18T07:52:37.668Z,100.00
2023-10-18T07:55:07.510Z,100.00
2023-10-18T07:57:38.450Z,100.00
2023-10-18T08:00:13.436Z,100.00
2023-10-18T08:02:44.517Z,100.00
2023-10-18T08:05:16.034Z,100.00
2023-10-18T08:07:47.436Z,100.00
2023-10-18T08:10:22.028Z,100.00
2023-10-18T08:13:11.842Z,100.00
2023-10-18T08:15:44.370Z,100.00
2023-10-18T08:18:19.235Z,100.00
2023-10-18T08:20:52.778Z,100.00
2023-10-18T08:23:29.456Z,100.00
2023-10-18T08:26:07.570Z,100.00
2023-10-18T08:28:43.429Z,100.00
2023-10-18T08:31:36.430Z,99.57
2023-10-18T08:34:09.859Z,100.00
2023-10-18T08:36:39.714Z,100.00
2023-10-18T08:39:10.362Z,98.26
2023-10-18T08:41:44.656Z,98.58
2023-10-18T08:44:20.368Z,99.76
2023-10-18T08:46:55.195Z,98.81
2023-10-18T08:49:25.710Z,98.71
2023-10-18T08:51:59.902Z,96.42
2023-10-18T08:57:02.768Z,96.61
2023-10-18T08:59:32.073Z,95.54
2023-10-18T09:02:14.014Z,95.58
2023-10-18T09:04:45.650Z,95.06
2023-10-18T09:07:24.511Z,95.85
2023-10-18T09:09:59.063Z,95.21
2023-10-18T09:12:47.039Z,91.99
2023-10-18T09:15:29.040Z,93.49
2023-10-18T09:18:01.196Z,90.41
2023-10-18T09:20:30.940Z,88.55
2023-10-18T09:23:04.743Z,87.19
2023-10-18T09:25:50.107Z,89.28
2023-10-18T09:28:27.267Z,87.54
2023-10-18T09:30:58.936Z,86.36
2023-10-18T09:33:33.302Z,83.87
2023-10-18T09:36:03.412Z,84.67
2023-10-18T09:38:41.384Z,84.58
2023-10-18T09:41:10.804Z,83.43
2023-10-18T09:43:40.121Z,84.39
2023-10-18T09:46:11.440Z,83.60
2023-10-18T09:48:43.424Z,83.63
2023-10-18T09:51:18.622Z,79.80
2023-10-18T09:53:52.555Z,80.43
2023-10-18T09:56:28.862Z,78.81
2023-10-18T09:59:08.718Z,77.88
2023-10-18T10:01:48.822Z,77.99
2023-10-18T10:04:23.323Z,78.74
2023-10-18T10:06:56.744Z,80.95
2023-10-18T10:09:33.781Z,81.75
2023-10-18T10:12:04.499Z,81.51
2023-10-18T10:14:35.381Z,82.99
2023-10-18T10:17:13.831Z,84.37
2023-10-18T10:19:49.136Z,84.69
2023-10-18T10:22:22.208Z,82.95
2023-10-18T10:25:04.924Z,83.15
2023-10-18T10:27:29.218Z,85.48
2023-10-18T10:30:19.006Z,83.22
2023-10-18T10:32:49.796Z,83.90
2023-10-18T10:35:22.717Z,84.29
2023-10-18T10:37:53.279Z,83.00
2023-10-18T10:40:32.344Z,83.28
2023-10-18T10:43:08.004Z,80.92
2023-10-18T10:45:49.118Z,81.10
2023-10-18T10:48:24.867Z,79.45
2023-10-18T10:51:17.151Z,79.26
2023-10-18T10:53:52.665Z,79.00
2023-10-18T10:56:36.972Z,78.13
2023-10-18T10:59:12.242Z,75.91
2023-10-18T11:01:58.765Z,75.93
2023-10-18T11:04:33.168Z,78.33
2023-10-18T11:07:04.849Z,77.67
2023-10-18T11:09:35.288Z,80.30
2023-10-18T11:12:07.935Z,79.12
2023-10-18T11:14:39.383Z,77.89
2023-10-18T11:17:17.238Z,78.12
2023-10-18T11:19:58.451Z,77.74
2023-10-18T11:22:35.238Z,77.98
2023-10-18T11:25:06.706Z,77.15
2023-10-18T11:27:37.829Z,77.08
2023-10-18T11:30:21.136Z,76.92
2023-10-18T11:32:57.273Z,77.72
2023-10-18T11:35:44.113Z,78.06
2023-10-18T11:38:15.459Z,77.72
2023-10-18T11:40:49.600Z,79.56
2023-10-18T11:43:27.010Z,80.20
2023-10-18T11:46:14.406Z,79.57
2023-10-18T11:48:44.453Z,80.51
2023-10-18T11:51:14.925Z,80.50
2023-10-18T11:53:45.354Z,80.78
2023-10-18T11:56:14.864Z,80.23
2023-10-18T11:58:47.957Z,79.78
2023-10-18T12:01:22.821Z,78.57
2023-10-18T12:03:53.000Z,74.93
2023-10-18T12:06:24.271Z,76.25
2023-10-18T12:09:11.678Z,77.03
2023-10-18T12:11:41.008Z,74.98
2023-10-18T12:14:10.417Z,77.18
2023-10-18T12:16:41.600Z,78.77
2023-10-18T12:19:12.428Z,79.34
2023-10-18T12:21:43.345Z,80.14
2023-10-18T12:24:13.925Z,80.84
2023-10-18T12:26:45.045Z,81.28
2023-10-18T12:29:16.145Z,81.37
2023-10-18T12:31:50.282Z,79.40
2023-10-18T12:34:21.306Z,80.07
2023-10-18T12:36:50.792Z,80.52
2023-10-18T12:39:22.820Z,77.72
2023-10-18T12:41:56.511Z,75.07
2023-10-18T12:44:30.375Z,75.81
2023-10-18T12:47:00.070Z,77.69
2023-10-18T12:49:31.164Z,75.62
2023-10-18T12:52:04.730Z,75.35
2023-10-18T12:54:37.928Z,77.04
2023-10-18T12:57:11.908Z,77.97
2023-10-18T13:00:01.216Z,77.04
2023-10-18T13:02:51.302Z,79.77
2023-10-18T13:05:20.969Z,78.51
2023-10-18T13:07:56.715Z,80.94
2023-10-18T13:10:33.862Z,80.78
2023-10-18T13:13:10.572Z,82.73
2023-10-18T13:15:41.849Z,81.91
2023-10-18T13:18:12.932Z,82.54
2023-10-18T13:20:45.715Z,82.68
2023-10-18T13:23:16.764Z,83.21
2023-10-18T13:25:55.699Z,84.89
2023-10-18T13:28:29.787Z,83.30
2023-10-18T13:30:59.074Z,84.09
2023-10-18T13:33:30.107Z,81.65
2023-10-18T13:35:59.367Z,82.34
2023-10-18T13:38:29.783Z,83.65
2023-10-18T13:41:03.588Z,83.01
2023-10-18T13:43:37.093Z,83.50
2023-10-18T13:46:08.187Z,84.80
2023-10-18T13:48:39.169Z,85.27
2023-10-18T13:51:11.418Z,84.33
2023-10-18T13:53:43.073Z,85.17
2023-10-18T13:56:14.177Z,86.35
2023-10-18T13:58:44.329Z,85.76
2023-10-18T14:01:21.405Z,84.44
2023-10-18T14:03:52.625Z,86.15
2023-10-18T14:06:36.837Z,86.24
2023-10-18T14:08:56.231Z,87.06
2023-10-18T14:11:44.689Z,87.43
2023-10-18T14:14:16.156Z,85.87
2023-10-18T14:16:50.431Z,87.03
2023-10-18T14:19:24.270Z,86.59
2023-10-18T14:21:53.644Z,87.40
2023-10-18T14:24:24.829Z,87.89
2023-10-18T14:26:55.229Z,88.12
2023-10-18T14:29:24.676Z,86.62
2023-10-18T14:31:54.191Z,86.45
2023-10-18T14:34:24.003Z,86.71
2023-10-18T14:36:53.640Z,87.41
2023-10-18T14:41:54.320Z,87.51
2023-10-18T14:44:23.686Z,88.31
2023-10-18T14:46:54.280Z,85.28
2023-10-18T14:49:23.673Z,86.29
2023-10-18T14:51:52.970Z,86.61
2023-10-18T14:54:22.430Z,86.77
2023-10-18T14:56:52.048Z,85.39
2023-10-18T14:59:21.593Z,86.45
2023-10-18T15:01:50.877Z,86.18
2023-10-18T15:04:20.274Z,87.50
2023-10-18T15:06:49.601Z,88.27
2023-10-18T15:09:19.287Z,88.28
2023-10-18T15:11:52.802Z,87.71
2023-10-18T15:14:23.156Z,89.20
2023-10-18T15:16:54.205Z,88.45
2023-10-18T15:19:23.629Z,88.76
2023-10-18T15:21:52.875Z,88.47
2023-10-18T15:24:23.765Z,88.69
2023-10-18T15:26:53.062Z,88.06
2023-10-18T15:29:22.417Z,87.84
2023-10-18T15:31:51.743Z,88.41
2023-10-18T15:34:21.264Z,89.31
2023-10-18T15:36:50.613Z,90.82
2023-10-18T15:39:19.972Z,89.01
2023-10-18T15:41:50.858Z,90.71
2023-10-18T15:44:20.233Z,91.10
2023-10-18T15:46:49.830Z,91.24
2023-10-18T15:49:19.162Z,91.21
2023-10-18T15:51:50.121Z,91.06
2023-10-18T15:54:20.338Z,91.85
2023-10-18T15:56:49.628Z,90.87
2023-10-18T15:59:19.047Z,91.70
2023-10-18T16:01:58.929Z,89.98
2023-10-18T16:04:20.613Z,91.37
2023-10-18T16:06:51.936Z,92.50
2023-10-18T16:09:23.227Z,93.96
2023-10-18T16:11:55.644Z,93.59
2023-10-18T16:14:26.665Z,91.80
2023-10-18T16:16:59.195Z,91.25
2023-10-18T16:19:31.542Z,92.90
2023-10-18T16:22:00.906Z,93.27
2023-10-18T16:24:33.494Z,93.18
2023-10-18T16:27:04.389Z,92.54
2023-10-18T16:29:34.616Z,92.90
2023-10-18T16:32:03.990Z,93.12
2023-10-18T16:34:33.307Z,92.27
2023-10-18T16:37:03.586Z,93.77
2023-10-18T16:39:32.950Z,92.28
2023-10-18T16:42:03.848Z,93.68
2023-10-18T16:44:33.820Z,93.36
2023-10-18T16:47:03.297Z,93.79
2023-10-18T16:49:32.880Z,93.24
2023-10-18T16:52:02.227Z,93.53
2023-10-18T16:54:32.907Z,93.10
2023-10-18T16:57:02.654Z,92.91
2023-10-18T16:59:32.344Z,91.35
2023-10-18T17:02:01.851Z,92.11
2023-10-18T17:04:33.515Z,91.71
2023-10-18T17:07:03.464Z,91.93
2023-10-18T17:09:34.737Z,90.57
2023-10-18T17:12:04.204Z,92.23
2023-10-18T17:14:33.751Z,91.98
2023-10-18T17:17:04.652Z,91.50
2023-10-18T17:19:35.638Z,91.20
2023-10-18T17:22:05.119Z,91.39
2023-10-18T17:24:34.867Z,92.65
2023-10-18T17:27:04.903Z,90.65
2023-10-18T17:29:34.380Z,90.81
2023-10-18T17:32:07.972Z,90.10
2023-10-18T17:34:40.036Z,91.70
2023-10-18T17:37:09.375Z,92.54
2023-10-18T17:39:38.964Z,91.77
2023-10-18T17:42:08.939Z,91.63
2023-10-18T17:44:41.408Z,91.69
2023-10-18T17:47:10.727Z,91.47
2023-10-18T17:49:41.850Z,92.46
2023-10-18T17:52:11.939Z,91.85
2023-10-18T17:54:41.521Z,91.02
2023-10-18T17:57:11.582Z,91.66
2023-10-18T17:59:41.025Z,91.14
2023-10-18T18:02:13.446Z,91.20
2023-10-18T18:04:43.469Z,91.59
2023-10-18T18:07:14.669Z,91.54
2023-10-18T18:09:44.956Z,92.41
2023-10-18T18:12:14.465Z,91.89
2023-10-18T18:14:43.856Z,93.31
2023-10-18T18:17:14.718Z,93.52
2023-10-18T18:19:44.446Z,93.09
2023-10-18T18:22:14.008Z,91.86
2023-10-18T18:24:43.458Z,93.78
2023-10-18T18:27:12.871Z,95.36
2023-10-18T18:29:42.237Z,94.16
2023-10-18T18:32:11.945Z,95.25
2023-10-18T18:34:42.981Z,97.34
2023-10-18T18:37:12.438Z,98.97
2023-10-18T18:39:41.879Z,100.00
2023-10-18T18:42:11.280Z,100.00
2023-10-18T18:44:40.691Z,100.00
2023-10-18T18:47:10.542Z,100.00
2023-10-18T18:49:41.385Z,100.00
2023-10-18T18:52:10.857Z,100.00
2023-10-18T18:54:40.350Z,100.00
2023-10-18T18:57:11.796Z,100.00
2023-10-18T18:59:42.736Z,100.00
2023-10-18T19:02:12.768Z,100.00
2023-10-18T19:04:42.235Z,100.00
2023-10-18T19:07:12.762Z,100.00
2023-10-18T19:09:42.123Z,100.00
2023-10-18T19:12:11.504Z,100.00
2023-10-18T19:14:40.962Z,100.00
2023-10-18T19:17:11.910Z,100.00
2023-10-18T19:19:41.587Z,100.00
2023-10-18T19:22:11.286Z,100.00
2023-10-18T19:24:43.752Z,100.00
2023-10-18T19:27:12.579Z,100.00
2023-10-18T19:29:41.827Z,100.00
2023-10-18T19:32:11.327Z,100.00
2023-10-18T19:34:41.188Z,100.00
2023-10-18T19:37:10.541Z,100.00
2023-10-18T19:39:41.593Z,100.00
2023-10-18T19:42:11.861Z,100.00
2023-10-18T19:44:42.830Z,100.00
2023-10-18T19:47:12.316Z,100.00
2023-10-18T19:49:41.792Z,100.00
2023-10-18T19:52:11.228Z,100.00
2023-10-18T19:54:40.677Z,100.00
2023-10-18T19:57:10.095Z,100.00
2023-10-18T19:59:39.489Z,100.00
2023-10-18T20:02:09.135Z,100.00
2023-10-18T20:04:38.712Z,100.00
2023-10-18T20:07:09.696Z,100.00
2023-10-18T20:09:39.909Z,100.00
2023-10-18T20:12:09.217Z,100.00
2023-10-18T20:14:38.629Z,100.00
2023-10-18T20:17:09.663Z,100.00
2023-10-18T20:19:39.719Z,100.00
2023-10-18T20:22:09.059Z,100.00
2023-10-18T20:24:40.895Z,100.00
2023-10-18T20:27:10.749Z,100.00
2023-10-18T20:29:42.367Z,100.00
2023-10-18T20:32:11.953Z,100.00
2023-10-18T20:34:41.750Z,100.00
2023-10-18T20:37:11.411Z,100.00
2023-10-18T20:39:51.663Z,100.00
2023-10-18T20:42:11.665Z,100.00
2023-10-18T20:44:42.163Z,100.00
2023-10-18T20:47:13.442Z,100.00
2023-10-18T20:49:44.386Z,100.00
2023-10-18T20:52:15.320Z,100.00
2023-10-18T20:54:46.370Z,100.00
2023-10-18T20:57:17.311Z,100.00
2023-10-18T20:59:46.599Z,100.00
2023-10-18T21:02:20.513Z,100.00
2023-10-18T21:04:50.190Z,100.00
2023-10-18T21:07:26.046Z,100.00
2023-10-18T21:09:55.821Z,100.00
2023-10-18T21:12:26.765Z,100.00
2023-10-18T21:14:56.097Z,100.00
2023-10-18T21:17:25.429Z,100.00
2023-10-18T21:19:54.763Z,100.00
2023-10-18T21:22:24.188Z,100.00
2023-10-18T21:24:53.620Z,100.00
2023-10-18T21:27:22.918Z,100.00
2023-10-18T21:29:52.767Z,100.00
2023-10-18T21:32:22.318Z,100.00
2023-10-18T21:34:54.055Z,100.00
2023-10-18T21:37:24.346Z,100.00
2023-10-18T21:39:53.666Z,100.00
2023-10-18T21:42:23.202Z,100.00
2023-10-18T21:44:52.540Z,100.00
2023-10-18T21:47:21.870Z,100.00
2023-10-18T21:49:51.891Z,100.00
2023-10-18T21:52:21.771Z,100.00
2023-10-18T21:54:51.167Z,100.00
2023-10-18T21:57:48.347Z,100.00
2023-10-18T22:00:19.502Z,100.00
2023-10-18T22:02:49.275Z,100.00
2023-10-18T22:05:19.676Z,100.00
2023-10-18T22:07:49.715Z,100.00
2023-10-18T22:10:20.786Z,100.00
2023-10-18T22:12:53.504Z,100.00
2023-10-18T22:15:24.515Z,100.00
2023-10-18T22:17:54.406Z,100.00
2023-10-18T22:20:26.354Z,100.00
2023-10-18T22:22:57.276Z,100.00
2023-10-18T22:25:28.289Z,100.00
2023-10-18T22:27:57.722Z,100.00
2023-10-18T22:30:31.155Z,100.00
2023-10-18T22:33:00.737Z,100.00
2023-10-18T22:35:31.108Z,100.00
2023-10-18T22:38:02.061Z,100.00
2023-10-18T22:40:33.086Z,100.00
2023-10-18T22:43:08.676Z,100.00
2023-10-18T22:45:39.850Z,100.00
2023-10-18T22:48:25.382Z,100.00
2023-10-18T22:50:56.801Z,100.00
2023-10-18T22:53:31.967Z,100.00
2023-10-18T22:56:01.621Z,100.00
2023-10-18T22:58:31.375Z,100.00
2023-10-18T23:01:02.212Z,100.00
2023-10-18T23:03:33.447Z,100.00
2023-10-18T23:06:04.591Z,100.00
2023-10-18T23:08:38.607Z,100.00
2023-10-18T23:11:26.569Z,100.00
2023-10-18T23:13:56.553Z,100.00
2023-10-18T23:16:33.535Z,100.00
2023-10-18T23:19:13.601Z,100.00
2023-10-18T23:21:42.999Z,100.00
2023-10-18T23:24:14.011Z,100.00
2023-10-18T23:26:50.744Z,100.00
2023-10-18T23:29:20.086Z,100.00
2023-10-18T23:31:57.536Z,100.00
2023-10-18T23:34:28.673Z,100.00
2023-10-18T23:37:13.179Z,100.00
2023-10-18T23:39:44.438Z,100.00
2023-10-18T23:42:16.733Z,100.00
2023-10-18T23:44:58.049Z,100.00
2023-10-18T23:47:42.190Z,100.00
2023-10-18T23:50:21.515Z,100.00
2023-10-18T23:52:55.928Z,100.00
2023-10-18T23:55:37.261Z,100.00
2023-10-18T23:58:12.293Z,100.00
